Rockaway Point, New York
Current Conditions -  °F | °C
As of 9:51 PM on Tuesday 25 Nov 2014 (Local Time) from KJFK Reporting Station
Overcast Overcast  
Wind Chill: 47°   Ceiling: 19000
Heat Index: 49°   Visibility: 10mi
Dew Point: 34°   Wind: 6mph
Humidity: 56%   Direction: 250°WSW
Pressure: 30.14"   Gusts: NA
Location:  40.5583°N, 73.9133°W
Report Text: KJFK 260251Z 25005KT 10SM OVC190 09/01 A3014 RMK AO2 SLP207 T00940011 51024 $
Loading
Personal Weather Stations






























Interactive Weather Map New forecast layout! Learn more

10-Day Weather Forecast

Advertisements
Track Severe Weather on mobile